Willowbrook, Canada
Current Conditions -  °F | °C
As of 6:00 PM on Wednesday 26 Nov 2014 (Local Time) from CYQV Reporting Station
Clear Clear  
Wind Chill: -11°   Ceiling: Unl
Heat Index: -11°   Visibility: 9mi
Dew Point: -17°   Wind: 3mph
Humidity: 77%   Direction: 150°SSE
Pressure: 30.44"   Gusts: NA
Location:  51.2°N, 102.8°W
Report Text: CYQV 270000Z AUTO 15003KT 9SM CLR M24/M27 A3044 RMK SLP370
Loading
Personal Weather Stations






























Interactive Weather Map New forecast layout! Learn more

10-Day Weather Forecast

Advertisements
Track Severe Weather on mobile